CheckWX is a tool to help pilots better visualize weather data.  It is not intended as a substitute for an official pre-flight weather briefing.

23:44:24 UTC

FMNA METAR
Arrachart Airport
Madagascar
Current

9 hours ago

FMNA 191500Z 14010KT 9999 FEW020 24/17 Q1015
Observed
Jul-19 @ 15:00 UTC
Wind
  • 140° at 10 KTS
Visibility
10,000+ meters
Flight Rules
VFR
Cloud Levels
  • Few at 2,000' AGL
Temperature
24°C / 75°F
Dewpoint
17°C / 63°F
Humidity
65%
Altimeter
29.97" Hg
Pressure
1014.92 hPa
Previous

10 hours ago

FMNA 191400Z 14012KT 9999 FEW020 27/16 Q1015
Observed
Jul-19 @ 14:00 UTC
Wind
  • 140° at 12 KTS
Visibility
10,000+ meters
Flight Rules
VFR
Cloud Levels
  • Few at 2,000' AGL
Temperature
27°C / 81°F
Dewpoint
16°C / 61°F
Heat Index
28°C / 82°F
Humidity
51%
Altimeter
29.97" Hg
Pressure
1014.92 hPa
Previous

11 hours ago

FMNA 191300Z 14010KT 9999 FEW020 28/15 Q1014
Observed
Jul-19 @ 13:00 UTC
Wind
  • 140° at 10 KTS
Visibility
10,000+ meters
Flight Rules
VFR
Cloud Levels
  • Few at 2,000' AGL
Temperature
28°C / 82°F
Dewpoint
15°C / 59°F
Heat Index
28°C / 82°F
Humidity
45%
Altimeter
29.94" Hg
Pressure
1013.92 hPa